createdAt,value
2022-09-07T00:00:03.607Z,37.33
2022-09-07T00:02:34.052Z,36.42
2022-09-07T00:05:04.393Z,34.65
2022-09-07T00:07:34.671Z,36.60
2022-09-07T00:10:04.983Z,38.60
2022-09-07T00:12:35.175Z,35.35
2022-09-07T00:15:09.749Z,35.70
2022-09-07T00:17:40.456Z,39.65
2022-09-07T00:20:11.501Z,33.13
2022-09-07T00:22:41.773Z,34.42
2022-09-07T00:25:12.175Z,34.30
2022-09-07T00:27:46.482Z,38.55
2022-09-07T00:30:17.114Z,32.03
2022-09-07T00:32:47.972Z,28.15
2022-09-07T00:35:18.521Z,31.20
2022-09-07T00:37:48.696Z,30.00
2022-09-07T00:40:18.896Z,32.10
2022-09-07T00:42:49.917Z,30.33
2022-09-07T00:45:21.936Z,33.28
2022-09-07T00:48:01.288Z,30.90
2022-09-07T00:50:38.030Z,32.30
2022-09-07T00:53:09.952Z,28.73
2022-09-07T00:55:41.239Z,31.95
2022-09-07T00:58:12.006Z,32.42
2022-09-07T01:00:46.488Z,32.15
2022-09-07T01:03:21.491Z,30.52
2022-09-07T01:05:58.449Z,31.27
2022-09-07T01:08:29.254Z,30.77
2022-09-07T01:11:01.304Z,29.90
2022-09-07T01:13:32.851Z,33.05
2022-09-07T01:16:17.680Z,33.08
2022-09-07T01:19:04.874Z,32.67
2022-09-07T01:21:54.895Z,32.97
2022-09-07T01:24:34.783Z,33.92
2022-09-07T01:27:24.886Z,31.83
2022-09-07T01:30:14.881Z,30.13
2022-09-07T01:32:52.509Z,31.83
2022-09-07T01:35:32.062Z,30.13
2022-09-07T01:38:08.658Z,32.35
2022-09-07T01:40:58.900Z,29.58
2022-09-07T01:43:49.770Z,27.73
2022-09-07T01:46:30.746Z,30.23
2022-09-07T01:49:08.541Z,29.55
2022-09-07T01:51:42.008Z,29.77
2022-09-07T01:54:17.684Z,31.30
2022-09-07T01:56:49.791Z,28.95
2022-09-07T01:59:23.350Z,30.45
2022-09-07T02:01:59.345Z,29.98
2022-09-07T02:04:34.748Z,30.10
2022-09-07T02:07:25.063Z,30.77
2022-09-07T02:10:15.325Z,28.60
2022-09-07T02:12:51.641Z,30.00
2022-09-07T02:15:25.760Z,31.05
2022-09-07T02:17:58.558Z,30.25
2022-09-07T02:20:32.894Z,30.58
2022-09-07T02:23:05.365Z,31.75
2022-09-07T02:25:41.058Z,29.20
2022-09-07T02:28:14.593Z,28.88
2022-09-07T02:30:45.162Z,25.08
2022-09-07T02:33:19.390Z,31.15
2022-09-07T02:35:54.407Z,26.73
2022-09-07T02:38:25.729Z,28.65
2022-09-07T02:40:58.080Z,28.17
2022-09-07T02:43:29.367Z,30.83
2022-09-07T02:46:22.222Z,27.55
2022-09-07T02:49:06.181Z,29.23
2022-09-07T02:51:56.151Z,24.73
2022-09-07T02:54:35.621Z,27.52
2022-09-07T02:57:25.717Z,26.98
2022-09-07T03:00:03.798Z,24.00
2022-09-07T03:02:53.981Z,25.92
2022-09-07T03:05:31.842Z,26.15
2022-09-07T03:08:08.863Z,32.10
2022-09-07T03:10:41.567Z,30.52
2022-09-07T03:13:12.972Z,30.58
2022-09-07T03:15:44.078Z,27.73
2022-09-07T03:18:14.825Z,25.55
2022-09-07T03:20:45.612Z,28.33
2022-09-07T03:23:16.558Z,25.83
2022-09-07T03:25:49.418Z,27.73
2022-09-07T03:28:19.857Z,26.65
2022-09-07T03:30:50.364Z,24.67
2022-09-07T03:33:21.253Z,25.30
2022-09-07T03:36:05.097Z,28.67
2022-09-07T03:38:35.555Z,26.10
2022-09-07T03:41:07.641Z,25.17
2022-09-07T03:43:41.435Z,28.30
2022-09-07T03:46:12.493Z,24.80
2022-09-07T03:48:43.388Z,28.30
2022-09-07T03:51:18.121Z,26.00
2022-09-07T03:53:49.448Z,26.50
2022-09-07T03:56:25.994Z,26.80
2022-09-07T03:58:58.312Z,27.42
2022-09-07T04:01:29.488Z,29.92
2022-09-07T04:04:02.439Z,25.88
2022-09-07T04:06:33.170Z,27.52
2022-09-07T04:09:06.781Z,34.55
2022-09-07T04:11:37.268Z,24.45
2022-09-07T04:14:07.799Z,25.75
2022-09-07T04:16:38.548Z,26.45
2022-09-07T04:19:09.085Z,29.77
2022-09-07T04:21:39.220Z,29.65
2022-09-07T04:24:09.359Z,25.88
2022-09-07T04:26:39.488Z,27.63
2022-09-07T04:29:10.208Z,28.40
2022-09-07T04:31:41.056Z,26.00
2022-09-07T04:34:13.142Z,26.08
2022-09-07T04:36:43.733Z,25.10
2022-09-07T04:39:14.285Z,28.35
2022-09-07T04:41:45.449Z,25.08
2022-09-07T04:44:17.103Z,25.95
2022-09-07T04:46:47.707Z,25.30
2022-09-07T04:49:18.062Z,25.00
2022-09-07T04:51:48.726Z,25.13
2022-09-07T04:54:19.159Z,25.30
2022-09-07T04:56:49.343Z,25.02
2022-09-07T04:59:19.608Z,25.85
2022-09-07T05:01:50.109Z,24.67
2022-09-07T05:04:20.832Z,23.58
2022-09-07T05:06:51.304Z,25.58
2022-09-07T05:09:21.791Z,28.77
2022-09-07T05:11:52.415Z,24.80
2022-09-07T05:14:22.473Z,24.30
2022-09-07T05:16:52.413Z,25.60
2022-09-07T05:19:22.718Z,25.67
2022-09-07T05:21:53.123Z,24.25
2022-09-07T05:24:23.814Z,26.15
2022-09-07T05:26:54.251Z,28.08
2022-09-07T05:32:15.262Z,25.42
2022-09-07T05:34:46.754Z,26.13
2022-09-07T05:37:17.843Z,27.27
2022-09-07T05:39:49.705Z,25.55
2022-09-07T05:42:20.155Z,24.38
2022-09-07T05:44:50.704Z,25.10
2022-09-07T05:47:20.585Z,25.60
2022-09-07T05:49:52.925Z,22.90
2022-09-07T05:52:25.374Z,34.83
2022-09-07T05:55:07.524Z,35.38
2022-09-07T05:57:46.207Z,25.50
2022-09-07T06:00:16.507Z,24.17
2022-09-07T06:02:46.775Z,26.25
2022-09-07T06:05:17.490Z,23.27
2022-09-07T06:07:50.167Z,26.13
2022-09-07T06:13:11.259Z,26.08
2022-09-07T06:15:41.487Z,23.33
2022-09-07T06:18:12.323Z,29.80
2022-09-07T06:20:42.918Z,24.33
2022-09-07T06:23:12.983Z,24.70
2022-09-07T06:25:50.230Z,24.88
2022-09-07T06:28:21.737Z,27.45
2022-09-07T06:30:52.180Z,23.70
2022-09-07T06:33:22.242Z,23.75
2022-09-07T06:36:00.295Z,27.45
2022-09-07T06:38:34.223Z,28.42
2022-09-07T06:43:57.109Z,26.05
2022-09-07T06:49:17.853Z,26.38
2022-09-07T06:51:47.990Z,28.17
2022-09-07T06:57:10.344Z,23.60
2022-09-07T06:59:41.128Z,26.30
2022-09-07T07:02:12.558Z,22.58
2022-09-07T07:04:43.350Z,22.75
2022-09-07T07:07:15.193Z,26.67
2022-09-07T07:09:45.630Z,23.55
2022-09-07T07:14:51.656Z,24.38
2022-09-07T07:17:21.865Z,26.95
2022-09-07T07:19:52.304Z,33.95
2022-09-07T07:22:46.102Z,26.55
2022-09-07T07:25:13.370Z,24.40
2022-09-07T07:27:43.905Z,25.95
2022-09-07T07:30:16.299Z,24.80
2022-09-07T07:32:47.547Z,27.30
2022-09-07T07:35:17.992Z,25.17
2022-09-07T07:37:49.702Z,24.02
2022-09-07T07:40:24.437Z,24.15
2022-09-07T07:42:57.459Z,26.63
2022-09-07T07:48:18.691Z,26.85
2022-09-07T07:51:02.642Z,27.05
2022-09-07T07:53:42.331Z,31.00
2022-09-07T07:56:14.272Z,27.52
2022-09-07T07:58:46.717Z,28.63
2022-09-07T08:01:19.100Z,31.17
2022-09-07T08:03:48.934Z,28.23
2022-09-07T08:06:20.076Z,29.70
2022-09-07T08:08:49.990Z,26.83
2022-09-07T08:11:20.456Z,27.95
2022-09-07T08:13:50.842Z,28.75
2022-09-07T08:16:21.170Z,29.73
2022-09-07T08:18:50.957Z,26.55
2022-09-07T08:21:20.559Z,25.15
2022-09-07T08:23:50.014Z,26.33
2022-09-07T08:26:19.617Z,24.17
2022-09-07T08:28:49.540Z,26.50
2022-09-07T08:31:19.766Z,26.77
2022-09-07T08:33:50.001Z,26.80
2022-09-07T08:36:21.241Z,32.42
2022-09-07T08:38:51.398Z,26.80
2022-09-07T08:41:41.680Z,25.30
2022-09-07T08:44:31.830Z,26.30
2022-09-07T08:47:04.250Z,36.38
2022-09-07T08:49:54.337Z,28.40
2022-09-07T08:52:28.477Z,28.38
2022-09-07T08:55:06.745Z,27.95
2022-09-07T08:57:38.053Z,26.45
2022-09-07T09:00:17.948Z,28.52
2022-09-07T09:03:28.700Z,27.27
2022-09-07T09:05:49.764Z,26.60
2022-09-07T09:08:39.297Z,28.95
2022-09-07T09:11:15.070Z,27.00
2022-09-07T09:14:04.893Z,28.73
2022-09-07T09:16:58.860Z,26.42
2022-09-07T09:19:41.501Z,29.50
2022-09-07T09:22:17.042Z,27.55
2022-09-07T09:25:00.223Z,28.58
2022-09-07T09:27:35.096Z,30.35
2022-09-07T09:30:23.698Z,29.63
2022-09-07T09:32:55.545Z,28.75
2022-09-07T09:35:33.507Z,28.13
2022-09-07T09:38:07.115Z,30.23
2022-09-07T09:40:39.206Z,27.60
2022-09-07T09:43:30.912Z,27.55
2022-09-07T09:46:13.162Z,29.38
2022-09-07T09:48:43.374Z,28.00
2022-09-07T09:54:09.874Z,30.15
2022-09-07T09:56:45.203Z,31.77
2022-09-07T10:05:33.010Z,32.67
2022-09-07T10:08:03.235Z,28.98
2022-09-07T10:10:35.178Z,31.25
2022-09-07T10:13:05.581Z,31.08
2022-09-07T10:15:40.950Z,35.08
2022-09-07T10:18:20.759Z,32.60
2022-09-07T10:20:56.502Z,33.70
2022-09-07T10:23:27.081Z,34.30
2022-09-07T10:25:57.652Z,34.95
2022-09-07T10:31:31.043Z,34.25
2022-09-07T10:37:19.952Z,35.30
2022-09-07T10:40:16.267Z,35.55
2022-09-07T10:46:14.769Z,33.45
2022-09-07T10:49:10.283Z,32.22
2022-09-07T10:52:00.163Z,33.13
2022-09-07T10:54:43.609Z,34.25
2022-09-07T10:57:36.197Z,36.00
2022-09-07T11:00:27.552Z,34.67
2022-09-07T11:03:25.600Z,33.28
2022-09-07T11:06:05.413Z,35.15
2022-09-07T11:12:04.928Z,35.78
2022-09-07T11:14:44.745Z,37.33
2022-09-07T11:17:26.313Z,38.70
2022-09-07T11:20:17.814Z,37.55
2022-09-07T11:23:05.941Z,38.33
2022-09-07T11:25:42.327Z,34.83
2022-09-07T11:28:32.227Z,40.15
2022-09-07T11:31:05.004Z,48.53
2022-09-07T11:33:37.626Z,40.35
2022-09-07T11:36:13.329Z,46.22
2022-09-07T11:38:55.469Z,45.35
2022-09-07T11:41:38.077Z,48.78
2022-09-07T11:44:20.534Z,43.80
2022-09-07T11:46:53.343Z,52.72
2022-09-07T11:49:28.967Z,74.97
2022-09-07T11:52:08.208Z,61.15
2022-09-07T11:54:50.045Z,68.22
2022-09-07T11:57:40.829Z,69.45
2022-09-07T12:00:34.924Z,68.22
2022-09-07T12:03:25.363Z,62.40
2022-09-07T12:06:18.945Z,73.35
2022-09-07T12:09:12.391Z,74.78
2022-09-07T12:11:56.842Z,81.25
2022-09-07T12:14:38.724Z,86.50
2022-09-07T12:17:20.695Z,75.38
2022-09-07T12:20:07.149Z,71.70
2022-09-07T12:22:46.804Z,66.57
2022-09-07T12:25:20.760Z,60.97
2022-09-07T12:27:51.759Z,54.78
2022-09-07T12:30:42.287Z,56.28
2022-09-07T12:33:36.929Z,56.72
2022-09-07T12:36:33.027Z,56.10
2022-09-07T12:39:23.921Z,53.80
2022-09-07T12:42:37.530Z,52.85
2022-09-07T12:45:28.146Z,51.08
2022-09-07T12:48:07.936Z,51.42
2022-09-07T12:51:06.825Z,46.05
2022-09-07T12:53:51.277Z,44.03
2022-09-07T12:56:47.109Z,46.25
2022-09-07T12:59:32.276Z,45.67
2022-09-07T13:02:15.623Z,47.03
2022-09-07T13:05:06.288Z,46.58
2022-09-07T13:07:59.291Z,44.80
2022-09-07T13:10:47.563Z,48.30
2022-09-07T13:19:56.616Z,50.20
2022-09-07T13:22:49.362Z,53.45
2022-09-07T13:25:44.647Z,62.05
2022-09-07T13:28:40.152Z,60.17
2022-09-07T13:31:41.413Z,59.00
2022-09-07T13:34:32.631Z,52.50
2022-09-07T13:37:11.421Z,60.78
2022-09-07T13:39:52.116Z,51.85
2022-09-07T13:42:29.287Z,48.28
2022-09-07T13:45:03.143Z,48.97
2022-09-07T13:47:55.196Z,56.28
2022-09-07T13:50:41.901Z,56.28
2022-09-07T13:53:39.310Z,59.30
2022-09-07T13:56:30.398Z,75.63
2022-09-07T13:59:01.707Z,72.95
2022-09-07T14:01:40.772Z,63.33
2022-09-07T14:04:35.744Z,66.10
2022-09-07T14:10:18.139Z,52.22
2022-09-07T14:12:54.449Z,48.72
2022-09-07T14:18:42.546Z,54.00
2022-09-07T14:21:24.934Z,54.20
2022-09-07T14:24:08.346Z,53.72
2022-09-07T14:26:39.175Z,60.05
2022-09-07T14:29:26.258Z,51.72
2022-09-07T14:32:05.142Z,55.60
2022-09-07T14:34:45.704Z,58.20
2022-09-07T14:37:21.569Z,78.53
2022-09-07T14:39:57.806Z,68.40
2022-09-07T14:42:32.099Z,67.05
2022-09-07T14:45:24.461Z,63.05
2022-09-07T14:48:01.845Z,61.65
2022-09-07T14:50:41.442Z,57.42
2022-09-07T14:53:37.119Z,58.65
2022-09-07T14:56:12.481Z,58.00
2022-09-07T14:58:42.629Z,59.15
2022-09-07T15:01:38.505Z,50.58
2022-09-07T15:04:22.856Z,49.25
2022-09-07T15:07:01.786Z,49.80
2022-09-07T15:09:52.077Z,53.05
2022-09-07T15:12:38.235Z,49.25
2022-09-07T15:15:37.471Z,49.47
2022-09-07T15:18:29.409Z,47.90
2022-09-07T15:21:02.265Z,54.08
2022-09-07T15:23:33.050Z,51.25
2022-09-07T15:27:02.114Z,54.42
2022-09-07T15:29:11.449Z,50.22
2022-09-07T15:32:03.933Z,51.45
2022-09-07T15:34:36.077Z,52.70
2022-09-07T15:40:02.767Z,53.53
2022-09-07T15:43:01.022Z,53.05
2022-09-07T15:45:33.048Z,50.97
2022-09-07T15:48:14.136Z,53.75
2022-09-07T15:50:46.677Z,52.58
2022-09-07T15:56:11.533Z,50.53
2022-09-07T15:58:46.624Z,52.90
2022-09-07T16:04:10.518Z,48.53
2022-09-07T16:06:48.435Z,50.10
2022-09-07T16:09:22.270Z,54.17
2022-09-07T16:11:55.486Z,48.28
2022-09-07T16:14:26.853Z,53.10
2022-09-07T16:19:57.623Z,50.38
2022-09-07T16:25:27.682Z,50.45
2022-09-07T16:28:00.175Z,51.45
2022-09-07T16:30:31.301Z,51.67
2022-09-07T16:33:04.908Z,52.95
2022-09-07T16:35:36.014Z,54.22
2022-09-07T16:41:00.024Z,52.75
2022-09-07T16:43:32.197Z,53.80
2022-09-07T16:46:08.216Z,57.22
2022-09-07T16:48:39.003Z,52.78
2022-09-07T16:51:09.823Z,56.20
2022-09-07T16:53:47.729Z,56.25
2022-09-07T16:56:24.503Z,55.58
2022-09-07T16:59:01.391Z,85.07
2022-09-07T17:01:38.927Z,143.35
2022-09-07T17:04:18.445Z,54.83
2022-09-07T17:06:48.853Z,50.58
2022-09-07T17:09:19.823Z,58.03
2022-09-07T17:11:53.791Z,52.65
2022-09-07T17:14:26.746Z,57.35
2022-09-07T17:17:01.755Z,53.15
2022-09-07T17:19:32.878Z,54.78
2022-09-07T17:22:04.905Z,80.45
2022-09-07T17:24:38.948Z,74.15
2022-09-07T17:27:09.237Z,73.85
2022-09-07T17:29:41.924Z,55.03
2022-09-07T17:32:29.625Z,66.53
2022-09-07T17:35:01.592Z,65.10
2022-09-07T17:37:32.833Z,67.47
2022-09-07T17:40:05.429Z,54.45
2022-09-07T17:45:32.081Z,53.95
2022-09-07T17:48:02.648Z,53.28
2022-09-07T17:50:37.158Z,53.47
2022-09-07T17:53:07.668Z,48.40
2022-09-07T17:55:37.902Z,50.35
2022-09-07T17:58:09.452Z,50.03
2022-09-07T18:00:39.938Z,50.22
2022-09-07T18:03:15.098Z,45.67
2022-09-07T18:05:46.016Z,46.47
2022-09-07T18:08:17.668Z,48.63
2022-09-07T18:13:47.487Z,51.78
2022-09-07T18:16:24.018Z,49.20
2022-09-07T18:18:55.118Z,53.50
2022-09-07T18:21:32.023Z,51.00
2022-09-07T18:24:06.292Z,48.25
2022-09-07T18:26:37.920Z,49.67
2022-09-07T18:29:25.929Z,50.65
2022-09-07T18:31:59.264Z,50.33
2022-09-07T18:34:31.881Z,49.60
2022-09-07T18:37:04.356Z,52.25
2022-09-07T18:39:36.779Z,45.88
2022-09-07T18:42:10.542Z,46.70
2022-09-07T18:47:34.430Z,40.42
2022-09-07T18:50:04.997Z,39.58
2022-09-07T18:55:26.462Z,41.35
2022-09-07T18:57:56.718Z,38.78
2022-09-07T19:00:27.732Z,40.72
2022-09-07T19:02:58.138Z,40.53
2022-09-07T19:08:20.513Z,39.80
2022-09-07T19:10:51.054Z,42.47
2022-09-07T19:13:22.613Z,43.28
2022-09-07T19:15:53.265Z,44.42
2022-09-07T19:18:23.573Z,40.97
2022-09-07T19:20:54.567Z,41.70
2022-09-07T19:23:25.404Z,40.78
2022-09-07T19:25:56.695Z,42.97
2022-09-07T19:28:27.097Z,36.25
2022-09-07T19:30:57.684Z,41.35
2022-09-07T19:33:28.264Z,37.90
2022-09-07T19:35:58.806Z,35.53
2022-09-07T19:38:29.381Z,38.97
2022-09-07T19:41:00.237Z,36.42
2022-09-07T19:43:38.281Z,36.78
2022-09-07T19:46:08.707Z,37.15
2022-09-07T19:48:40.054Z,41.53
2022-09-07T19:51:12.429Z,35.78
2022-09-07T19:53:44.327Z,33.97
2022-09-07T19:56:16.456Z,34.38
2022-09-07T19:58:48.021Z,34.15
2022-09-07T20:01:20.042Z,34.00
2022-09-07T20:04:21.354Z,31.60
2022-09-07T20:06:52.706Z,34.30
2022-09-07T20:09:22.965Z,30.45
2022-09-07T20:11:53.540Z,32.00
2022-09-07T20:14:25.961Z,31.90
2022-09-07T20:16:57.140Z,32.22
2022-09-07T20:19:28.462Z,31.05
2022-09-07T20:22:01.335Z,31.35
2022-09-07T20:27:19.722Z,28.63
2022-09-07T20:29:52.058Z,31.40
2022-09-07T20:32:22.098Z,31.00
2022-09-07T20:34:52.440Z,31.60
2022-09-07T20:37:23.046Z,29.73
2022-09-07T20:39:53.808Z,30.77
2022-09-07T20:42:24.650Z,28.92
2022-09-07T20:44:55.255Z,29.30
2022-09-07T20:47:25.494Z,32.15
2022-09-07T20:49:55.758Z,33.50
2022-09-07T20:52:26.152Z,31.48
2022-09-07T20:54:56.370Z,34.50
2022-09-07T20:57:26.878Z,32.65
2022-09-07T20:59:57.018Z,33.75
2022-09-07T21:02:27.547Z,31.52
2022-09-07T21:04:58.397Z,35.30
2022-09-07T21:07:28.681Z,36.28
2022-09-07T21:10:00.565Z,35.47
2022-09-07T21:12:33.950Z,38.65
2022-09-07T21:15:04.124Z,34.90
2022-09-07T21:17:34.312Z,43.50
2022-09-07T21:20:05.405Z,38.30
2022-09-07T21:22:35.439Z,42.95
2022-09-07T21:25:05.644Z,43.03
2022-09-07T21:27:39.205Z,41.63
2022-09-07T21:30:10.109Z,43.20
2022-09-07T21:32:41.942Z,47.03
2022-09-07T21:35:12.646Z,43.70
2022-09-07T21:37:42.803Z,45.67
2022-09-07T21:40:12.983Z,45.25
2022-09-07T21:42:43.236Z,45.20
2022-09-07T21:45:13.730Z,44.35
2022-09-07T21:47:44.204Z,44.42
2022-09-07T21:50:15.162Z,50.03
2022-09-07T21:52:45.467Z,44.47
2022-09-07T21:55:15.885Z,42.08
2022-09-07T21:57:46.088Z,43.10
2022-09-07T22:00:17.625Z,48.90
2022-09-07T22:02:47.690Z,52.10
2022-09-07T22:05:18.449Z,48.75
2022-09-07T22:07:48.973Z,50.55
2022-09-07T22:10:18.860Z,46.00
2022-09-07T22:12:49.465Z,44.58
2022-09-07T22:15:19.650Z,50.22
2022-09-07T22:17:50.442Z,53.90
2022-09-07T22:20:20.915Z,50.35
2022-09-07T22:22:51.025Z,52.28
2022-09-07T22:25:21.344Z,49.13
2022-09-07T22:27:51.720Z,47.55
2022-09-07T22:30:22.266Z,46.20
2022-09-07T22:32:53.619Z,50.63
2022-09-07T22:35:25.032Z,51.20
2022-09-07T22:37:55.246Z,54.15
2022-09-07T22:40:25.395Z,53.22
2022-09-07T22:42:55.928Z,51.28
2022-09-07T22:45:26.149Z,51.75
2022-09-07T22:47:56.496Z,54.97
2022-09-07T22:50:27.419Z,52.15
2022-09-07T22:52:58.264Z,53.10
2022-09-07T22:55:28.688Z,51.53
2022-09-07T22:57:58.835Z,50.50
2022-09-07T23:00:29.338Z,52.38
2022-09-07T23:02:59.624Z,49.92
2022-09-07T23:05:29.620Z,55.25
2022-09-07T23:08:00.083Z,52.97
2022-09-07T23:10:31.593Z,52.25
2022-09-07T23:13:01.727Z,52.97
2022-09-07T23:15:32.237Z,49.72
2022-09-07T23:18:02.254Z,46.03
2022-09-07T23:20:32.760Z,48.78
2022-09-07T23:23:03.293Z,53.88
2022-09-07T23:25:33.403Z,55.72
2022-09-07T23:28:04.222Z,58.42
2022-09-07T23:30:34.681Z,59.35
2022-09-07T23:33:05.514Z,61.67
2022-09-07T23:35:36.226Z,58.50
2022-09-07T23:38:06.442Z,54.25
2022-09-07T23:40:36.533Z,53.53
2022-09-07T23:43:07.074Z,51.60
2022-09-07T23:45:38.189Z,50.42
2022-09-07T23:48:08.677Z,58.63
2022-09-07T23:50:39.181Z,53.10
2022-09-07T23:53:09.776Z,53.88
2022-09-07T23:55:40.354Z,62.50
2022-09-07T23:58:11.740Z,84.18
